sensor_id;sensor_type;location;lat;lon;timestamp;P1;durP1;ratioP1;P2;durP2;ratioP2
28551;SDS011;15752;49.560;8.708;2023-01-26T00:00:10;15.53;;;9.90;;
28551;SDS011;15752;49.560;8.708;2023-01-26T00:02:40;16.63;;;10.87;;
28551;SDS011;15752;49.560;8.708;2023-01-26T00:05:09;15.50;;;10.13;;
28551;SDS011;15752;49.560;8.708;2023-01-26T00:07:37;15.17;;;10.20;;
28551;SDS011;15752;49.560;8.708;2023-01-26T00:10:10;17.50;;;11.10;;
28551;SDS011;15752;49.560;8.708;2023-01-26T00:12:40;15.77;;;10.80;;
28551;SDS011;15752;49.560;8.708;2023-01-26T00:15:08;16.27;;;10.63;;
28551;SDS011;15752;49.560;8.708;2023-01-26T00:17:37;18.33;;;11.77;;
28551;SDS011;15752;49.560;8.708;2023-01-26T00:20:08;15.97;;;10.90;;
28551;SDS011;15752;49.560;8.708;2023-01-26T00:22:40;18.23;;;12.17;;
28551;SDS011;15752;49.560;8.708;2023-01-26T00:25:09;18.90;;;12.00;;
28551;SDS011;15752;49.560;8.708;2023-01-26T00:27:37;17.23;;;11.97;;
28551;SDS011;15752;49.560;8.708;2023-01-26T00:30:07;17.83;;;11.60;;
28551;SDS011;15752;49.560;8.708;2023-01-26T00:32:37;18.27;;;11.17;;
28551;SDS011;15752;49.560;8.708;2023-01-26T00:35:05;19.97;;;12.37;;
28551;SDS011;15752;49.560;8.708;2023-01-26T00:37:36;19.40;;;11.87;;
28551;SDS011;15752;49.560;8.708;2023-01-26T00:40:05;17.57;;;11.30;;
28551;SDS011;15752;49.560;8.708;2023-01-26T00:42:35;17.57;;;10.77;;
28551;SDS011;15752;49.560;8.708;2023-01-26T00:45:05;17.57;;;11.13;;
28551;SDS011;15752;49.560;8.708;2023-01-26T00:47:34;16.93;;;11.87;;
28551;SDS011;15752;49.560;8.708;2023-01-26T00:50:03;20.13;;;12.83;;
28551;SDS011;15752;49.560;8.708;2023-01-26T00:52:34;18.57;;;12.10;;
28551;SDS011;15752;49.560;8.708;2023-01-26T00:55:03;19.70;;;12.27;;
28551;SDS011;15752;49.560;8.708;2023-01-26T00:57:32;18.00;;;12.20;;
28551;SDS011;15752;49.560;8.708;2023-01-26T01:00:02;19.13;;;12.50;;
28551;SDS011;15752;49.560;8.708;2023-01-26T01:02:33;20.10;;;12.27;;
28551;SDS011;15752;49.560;8.708;2023-01-26T01:05:01;16.17;;;10.80;;
28551;SDS011;15752;49.560;8.708;2023-01-26T01:07:30;17.33;;;10.83;;
28551;SDS011;15752;49.560;8.708;2023-01-26T01:10:00;17.63;;;10.87;;
28551;SDS011;15752;49.560;8.708;2023-01-26T01:12:28;16.73;;;11.67;;
28551;SDS011;15752;49.560;8.708;2023-01-26T01:14:57;19.20;;;11.63;;
28551;SDS011;15752;49.560;8.708;2023-01-26T01:17:25;16.73;;;10.60;;
28551;SDS011;15752;49.560;8.708;2023-01-26T01:19:54;17.27;;;11.90;;
28551;SDS011;15752;49.560;8.708;2023-01-26T01:22:22;18.10;;;12.10;;
28551;SDS011;15752;49.560;8.708;2023-01-26T01:24:51;20.60;;;12.33;;
28551;SDS011;15752;49.560;8.708;2023-01-26T01:27:21;20.90;;;11.73;;
28551;SDS011;15752;49.560;8.708;2023-01-26T01:29:50;19.97;;;12.70;;
28551;SDS011;15752;49.560;8.708;2023-01-26T01:32:18;18.93;;;12.40;;
28551;SDS011;15752;49.560;8.708;2023-01-26T01:34:47;22.47;;;13.40;;
28551;SDS011;15752;49.560;8.708;2023-01-26T01:37:16;18.90;;;12.00;;
28551;SDS011;15752;49.560;8.708;2023-01-26T01:39:45;16.43;;;11.33;;
28551;SDS011;15752;49.560;8.708;2023-01-26T01:42:15;19.63;;;12.27;;
28551;SDS011;15752;49.560;8.708;2023-01-26T01:44:45;18.63;;;12.30;;
28551;SDS011;15752;49.560;8.708;2023-01-26T01:47:52;17.77;;;11.17;;
28551;SDS011;15752;49.560;8.708;2023-01-26T01:50:23;18.80;;;12.43;;
28551;SDS011;15752;49.560;8.708;2023-01-26T01:52:53;19.60;;;12.30;;
28551;SDS011;15752;49.560;8.708;2023-01-26T01:55:22;15.20;;;10.83;;
28551;SDS011;15752;49.560;8.708;2023-01-26T01:57:52;18.40;;;11.40;;
28551;SDS011;15752;49.560;8.708;2023-01-26T02:00:27;23.77;;;14.17;;
28551;SDS011;15752;49.560;8.708;2023-01-26T02:02:57;22.67;;;13.67;;
28551;SDS011;15752;49.560;8.708;2023-01-26T02:05:42;20.73;;;13.07;;
28551;SDS011;15752;49.560;8.708;2023-01-26T02:08:20;17.33;;;11.33;;
28551;SDS011;15752;49.560;8.708;2023-01-26T02:10:53;19.53;;;12.63;;
28551;SDS011;15752;49.560;8.708;2023-01-26T02:13:26;20.07;;;12.60;;
28551;SDS011;15752;49.560;8.708;2023-01-26T02:15:58;18.97;;;12.07;;
28551;SDS011;15752;49.560;8.708;2023-01-26T02:18:28;21.30;;;12.90;;
28551;SDS011;15752;49.560;8.708;2023-01-26T02:20:58;18.20;;;12.10;;
28551;SDS011;15752;49.560;8.708;2023-01-26T02:23:32;22.30;;;13.67;;
28551;SDS011;15752;49.560;8.708;2023-01-26T02:26:14;25.43;;;15.10;;
28551;SDS011;15752;49.560;8.708;2023-01-26T02:28:45;20.67;;;12.87;;
28551;SDS011;15752;49.560;8.708;2023-01-26T02:31:14;23.07;;;13.93;;
28551;SDS011;15752;49.560;8.708;2023-01-26T02:33:46;22.13;;;14.03;;
28551;SDS011;15752;49.560;8.708;2023-01-26T02:36:17;23.30;;;13.63;;
28551;SDS011;15752;49.560;8.708;2023-01-26T02:38:50;24.43;;;14.70;;
28551;SDS011;15752;49.560;8.708;2023-01-26T02:41:46;21.57;;;13.03;;
28551;SDS011;15752;49.560;8.708;2023-01-26T02:44:33;20.73;;;13.47;;
28551;SDS011;15752;49.560;8.708;2023-01-26T02:47:09;22.27;;;14.33;;
28551;SDS011;15752;49.560;8.708;2023-01-26T02:49:39;21.30;;;14.00;;
28551;SDS011;15752;49.560;8.708;2023-01-26T02:52:19;23.97;;;14.97;;
28551;SDS011;15752;49.560;8.708;2023-01-26T02:54:59;22.50;;;13.00;;
28551;SDS011;15752;49.560;8.708;2023-01-26T02:57:48;22.97;;;14.00;;
28551;SDS011;15752;49.560;8.708;2023-01-26T03:00:17;19.27;;;12.03;;
28551;SDS011;15752;49.560;8.708;2023-01-26T03:02:49;18.30;;;11.70;;
28551;SDS011;15752;49.560;8.708;2023-01-26T03:05:20;20.43;;;12.40;;
28551;SDS011;15752;49.560;8.708;2023-01-26T03:07:49;19.40;;;12.37;;
28551;SDS011;15752;49.560;8.708;2023-01-26T03:10:20;19.63;;;12.70;;
28551;SDS011;15752;49.560;8.708;2023-01-26T03:12:52;20.97;;;13.10;;
28551;SDS011;15752;49.560;8.708;2023-01-26T03:15:20;20.67;;;11.90;;
28551;SDS011;15752;49.560;8.708;2023-01-26T03:18:08;17.47;;;11.33;;
28551;SDS011;15752;49.560;8.708;2023-01-26T03:20:52;19.53;;;11.90;;
28551;SDS011;15752;49.560;8.708;2023-01-26T03:23:49;17.30;;;11.47;;
28551;SDS011;15752;49.560;8.708;2023-01-26T03:26:36;18.57;;;10.27;;
28551;SDS011;15752;49.560;8.708;2023-01-26T03:29:26;16.97;;;11.13;;
28551;SDS011;15752;49.560;8.708;2023-01-26T03:31:57;16.37;;;10.47;;
28551;SDS011;15752;49.560;8.708;2023-01-26T03:34:26;17.87;;;10.67;;
28551;SDS011;15752;49.560;8.708;2023-01-26T03:36:56;16.03;;;9.87;;
28551;SDS011;15752;49.560;8.708;2023-01-26T03:39:31;16.10;;;10.63;;
28551;SDS011;15752;49.560;8.708;2023-01-26T03:42:17;15.83;;;10.07;;
28551;SDS011;15752;49.560;8.708;2023-01-26T03:45:05;19.50;;;10.70;;
28551;SDS011;15752;49.560;8.708;2023-01-26T03:47:52;15.60;;;9.97;;
28551;SDS011;15752;49.560;8.708;2023-01-26T03:50:47;15.63;;;10.07;;
28551;SDS011;15752;49.560;8.708;2023-01-26T03:53:33;19.07;;;10.60;;
28551;SDS011;15752;49.560;8.708;2023-01-26T03:56:19;14.73;;;9.07;;
28551;SDS011;15752;49.560;8.708;2023-01-26T03:58:53;15.50;;;8.80;;
28551;SDS011;15752;49.560;8.708;2023-01-26T04:01:28;14.07;;;8.60;;
28551;SDS011;15752;49.560;8.708;2023-01-26T04:03:59;14.77;;;8.70;;
28551;SDS011;15752;49.560;8.708;2023-01-26T04:06:47;14.83;;;9.70;;
28551;SDS011;15752;49.560;8.708;2023-01-26T04:09:36;13.67;;;8.57;;
28551;SDS011;15752;49.560;8.708;2023-01-26T04:12:07;14.87;;;9.10;;
28551;SDS011;15752;49.560;8.708;2023-01-26T04:14:47;16.13;;;10.07;;
28551;SDS011;15752;49.560;8.708;2023-01-26T04:17:34;14.77;;;9.10;;
28551;SDS011;15752;49.560;8.708;2023-01-26T04:20:19;11.77;;;8.10;;
28551;SDS011;15752;49.560;8.708;2023-01-26T04:23:06;17.73;;;10.57;;
28551;SDS011;15752;49.560;8.708;2023-01-26T04:25:35;20.80;;;11.33;;
28551;SDS011;15752;49.560;8.708;2023-01-26T04:28:03;22.00;;;12.40;;
28551;SDS011;15752;49.560;8.708;2023-01-26T04:30:32;23.73;;;14.20;;
28551;SDS011;15752;49.560;8.708;2023-01-26T04:33:02;26.83;;;14.77;;
28551;SDS011;15752;49.560;8.708;2023-01-26T04:35:32;24.33;;;14.63;;
28551;SDS011;15752;49.560;8.708;2023-01-26T04:38:00;22.63;;;13.80;;
28551;SDS011;15752;49.560;8.708;2023-01-26T04:40:29;22.80;;;14.93;;
28551;SDS011;15752;49.560;8.708;2023-01-26T04:42:57;23.30;;;13.47;;
28551;SDS011;15752;49.560;8.708;2023-01-26T04:45:26;19.37;;;12.80;;
28551;SDS011;15752;49.560;8.708;2023-01-26T04:47:55;21.07;;;13.90;;
28551;SDS011;15752;49.560;8.708;2023-01-26T04:50:25;19.67;;;12.53;;
28551;SDS011;15752;49.560;8.708;2023-01-26T04:52:54;18.23;;;11.30;;
28551;SDS011;15752;49.560;8.708;2023-01-26T04:55:22;20.50;;;12.17;;
28551;SDS011;15752;49.560;8.708;2023-01-26T04:57:51;18.93;;;12.13;;
28551;SDS011;15752;49.560;8.708;2023-01-26T05:00:19;18.63;;;11.40;;
28551;SDS011;15752;49.560;8.708;2023-01-26T05:02:51;19.27;;;12.77;;
28551;SDS011;15752;49.560;8.708;2023-01-26T05:05:19;18.63;;;11.90;;
28551;SDS011;15752;49.560;8.708;2023-01-26T05:07:50;19.33;;;12.20;;
28551;SDS011;15752;49.560;8.708;2023-01-26T05:10:19;18.63;;;12.63;;
28551;SDS011;15752;49.560;8.708;2023-01-26T05:12:56;16.27;;;11.03;;
28551;SDS011;15752;49.560;8.708;2023-01-26T05:15:25;17.07;;;11.20;;
28551;SDS011;15752;49.560;8.708;2023-01-26T05:18:12;15.83;;;10.10;;
28551;SDS011;15752;49.560;8.708;2023-01-26T05:20:52;17.03;;;10.87;;
28551;SDS011;15752;49.560;8.708;2023-01-26T05:23:26;17.23;;;10.63;;
28551;SDS011;15752;49.560;8.708;2023-01-26T05:26:13;17.27;;;10.97;;
28551;SDS011;15752;49.560;8.708;2023-01-26T05:28:54;17.33;;;10.33;;
28551;SDS011;15752;49.560;8.708;2023-01-26T05:31:24;14.93;;;9.37;;
28551;SDS011;15752;49.560;8.708;2023-01-26T05:33:54;14.53;;;9.20;;
28551;SDS011;15752;49.560;8.708;2023-01-26T05:36:23;15.27;;;9.30;;
28551;SDS011;15752;49.560;8.708;2023-01-26T05:38:53;13.17;;;9.23;;
28551;SDS011;15752;49.560;8.708;2023-01-26T05:41:24;16.07;;;10.00;;
28551;SDS011;15752;49.560;8.708;2023-01-26T05:44:15;13.57;;;8.63;;
28551;SDS011;15752;49.560;8.708;2023-01-26T05:46:48;14.17;;;8.87;;
28551;SDS011;15752;49.560;8.708;2023-01-26T05:49:16;15.00;;;8.37;;
28551;SDS011;15752;49.560;8.708;2023-01-26T05:51:45;14.03;;;8.50;;
28551;SDS011;15752;49.560;8.708;2023-01-26T05:54:15;13.50;;;8.20;;
28551;SDS011;15752;49.560;8.708;2023-01-26T05:56:44;11.93;;;7.40;;
28551;SDS011;15752;49.560;8.708;2023-01-26T05:59:13;9.67;;;7.03;;
28551;SDS011;15752;49.560;8.708;2023-01-26T06:01:42;11.63;;;7.20;;
28551;SDS011;15752;49.560;8.708;2023-01-26T06:04:10;11.73;;;7.57;;
28551;SDS011;15752;49.560;8.708;2023-01-26T06:06:51;14.77;;;8.77;;
28551;SDS011;15752;49.560;8.708;2023-01-26T06:09:31;12.53;;;7.60;;
28551;SDS011;15752;49.560;8.708;2023-01-26T06:12:14;12.23;;;8.50;;
28551;SDS011;15752;49.560;8.708;2023-01-26T06:15:04;12.50;;;7.93;;
28551;SDS011;15752;49.560;8.708;2023-01-26T06:17:38;11.50;;;7.87;;
28551;SDS011;15752;49.560;8.708;2023-01-26T06:20:09;11.10;;;7.33;;
28551;SDS011;15752;49.560;8.708;2023-01-26T06:22:43;13.00;;;7.73;;
28551;SDS011;15752;49.560;8.708;2023-01-26T06:25:13;11.63;;;7.77;;
28551;SDS011;15752;49.560;8.708;2023-01-26T06:27:42;12.13;;;7.97;;
28551;SDS011;15752;49.560;8.708;2023-01-26T06:30:22;10.80;;;6.97;;
28551;SDS011;15752;49.560;8.708;2023-01-26T06:32:52;12.63;;;7.97;;
28551;SDS011;15752;49.560;8.708;2023-01-26T06:35:22;12.17;;;7.67;;
28551;SDS011;15752;49.560;8.708;2023-01-26T06:37:54;15.70;;;9.20;;
28551;SDS011;15752;49.560;8.708;2023-01-26T06:40:24;13.23;;;9.03;;
28551;SDS011;15752;49.560;8.708;2023-01-26T06:42:52;11.00;;;7.50;;
28551;SDS011;15752;49.560;8.708;2023-01-26T06:45:21;11.73;;;7.40;;
28551;SDS011;15752;49.560;8.708;2023-01-26T06:47:50;11.00;;;7.57;;
28551;SDS011;15752;49.560;8.708;2023-01-26T06:50:19;11.37;;;7.63;;
28551;SDS011;15752;49.560;8.708;2023-01-26T06:52:53;11.77;;;7.60;;
28551;SDS011;15752;49.560;8.708;2023-01-26T06:55:36;13.67;;;7.73;;
28551;SDS011;15752;49.560;8.708;2023-01-26T06:58:25;11.50;;;7.60;;
28551;SDS011;15752;49.560;8.708;2023-01-26T07:01:05;12.00;;;7.60;;
28551;SDS011;15752;49.560;8.708;2023-01-26T07:03:34;11.73;;;7.27;;
28551;SDS011;15752;49.560;8.708;2023-01-26T07:06:02;12.10;;;8.10;;
28551;SDS011;15752;49.560;8.708;2023-01-26T07:08:33;11.63;;;7.70;;
28551;SDS011;15752;49.560;8.708;2023-01-26T07:11:03;9.90;;;6.73;;
28551;SDS011;15752;49.560;8.708;2023-01-26T07:13:34;12.07;;;7.97;;
28551;SDS011;15752;49.560;8.708;2023-01-26T07:16:03;11.67;;;8.03;;
28551;SDS011;15752;49.560;8.708;2023-01-26T07:18:34;9.77;;;6.80;;
28551;SDS011;15752;49.560;8.708;2023-01-26T07:21:04;12.50;;;8.63;;
28551;SDS011;15752;49.560;8.708;2023-01-26T07:23:34;12.70;;;7.43;;
28551;SDS011;15752;49.560;8.708;2023-01-26T07:26:04;9.87;;;6.50;;
28551;SDS011;15752;49.560;8.708;2023-01-26T07:28:33;10.43;;;6.60;;
28551;SDS011;15752;49.560;8.708;2023-01-26T07:31:04;12.73;;;7.83;;
28551;SDS011;15752;49.560;8.708;2023-01-26T07:33:34;10.27;;;7.23;;
28551;SDS011;15752;49.560;8.708;2023-01-26T07:36:03;9.13;;;6.50;;
28551;SDS011;15752;49.560;8.708;2023-01-26T07:38:33;10.13;;;6.43;;
28551;SDS011;15752;49.560;8.708;2023-01-26T07:41:05;9.97;;;6.73;;
28551;SDS011;15752;49.560;8.708;2023-01-26T07:43:36;10.17;;;6.50;;
28551;SDS011;15752;49.560;8.708;2023-01-26T07:46:08;9.70;;;6.83;;
28551;SDS011;15752;49.560;8.708;2023-01-26T07:48:37;9.93;;;6.23;;
28551;SDS011;15752;49.560;8.708;2023-01-26T07:51:07;11.00;;;7.17;;
28551;SDS011;15752;49.560;8.708;2023-01-26T07:53:36;10.83;;;6.97;;
28551;SDS011;15752;49.560;8.708;2023-01-26T07:56:10;9.97;;;7.10;;
28551;SDS011;15752;49.560;8.708;2023-01-26T07:58:40;11.50;;;7.40;;
28551;SDS011;15752;49.560;8.708;2023-01-26T08:01:10;12.37;;;7.47;;
28551;SDS011;15752;49.560;8.708;2023-01-26T08:03:41;12.70;;;7.80;;
28551;SDS011;15752;49.560;8.708;2023-01-26T08:06:11;10.90;;;7.77;;
28551;SDS011;15752;49.560;8.708;2023-01-26T08:08:41;9.73;;;7.03;;
28551;SDS011;15752;49.560;8.708;2023-01-26T08:11:11;11.03;;;7.93;;
28551;SDS011;15752;49.560;8.708;2023-01-26T08:13:39;10.20;;;6.93;;
28551;SDS011;15752;49.560;8.708;2023-01-26T08:16:08;10.23;;;7.10;;
28551;SDS011;15752;49.560;8.708;2023-01-26T08:18:38;11.60;;;7.13;;
28551;SDS011;15752;49.560;8.708;2023-01-26T08:21:09;12.20;;;8.33;;
28551;SDS011;15752;49.560;8.708;2023-01-26T08:23:38;11.13;;;7.30;;
28551;SDS011;15752;49.560;8.708;2023-01-26T08:26:09;11.57;;;6.43;;
28551;SDS011;15752;49.560;8.708;2023-01-26T08:28:40;10.53;;;6.87;;
28551;SDS011;15752;49.560;8.708;2023-01-26T08:31:10;10.63;;;7.00;;
28551;SDS011;15752;49.560;8.708;2023-01-26T08:33:43;10.40;;;6.53;;
28551;SDS011;15752;49.560;8.708;2023-01-26T08:36:13;11.97;;;7.63;;
28551;SDS011;15752;49.560;8.708;2023-01-26T08:38:42;11.20;;;7.73;;
28551;SDS011;15752;49.560;8.708;2023-01-26T08:41:12;12.50;;;8.20;;
28551;SDS011;15752;49.560;8.708;2023-01-26T08:43:41;10.33;;;7.37;;
28551;SDS011;15752;49.560;8.708;2023-01-26T08:46:09;9.70;;;6.90;;
28551;SDS011;15752;49.560;8.708;2023-01-26T08:48:38;12.00;;;7.67;;
28551;SDS011;15752;49.560;8.708;2023-01-26T08:51:06;8.50;;;6.33;;
28551;SDS011;15752;49.560;8.708;2023-01-26T08:53:35;9.73;;;5.87;;
28551;SDS011;15752;49.560;8.708;2023-01-26T08:56:05;9.47;;;6.00;;
28551;SDS011;15752;49.560;8.708;2023-01-26T08:58:38;9.63;;;6.97;;
28551;SDS011;15752;49.560;8.708;2023-01-26T09:01:07;11.07;;;6.97;;
28551;SDS011;15752;49.560;8.708;2023-01-26T09:03:38;8.37;;;5.63;;
28551;SDS011;15752;49.560;8.708;2023-01-26T09:06:07;7.67;;;5.07;;
28551;SDS011;15752;49.560;8.708;2023-01-26T09:08:37;9.50;;;5.50;;
28551;SDS011;15752;49.560;8.708;2023-01-26T09:11:06;7.40;;;5.40;;
28551;SDS011;15752;49.560;8.708;2023-01-26T09:13:35;7.40;;;5.23;;
28551;SDS011;15752;49.560;8.708;2023-01-26T09:16:06;8.77;;;5.60;;
28551;SDS011;15752;49.560;8.708;2023-01-26T09:18:47;7.87;;;5.30;;
28551;SDS011;15752;49.560;8.708;2023-01-26T09:21:17;8.37;;;5.13;;
28551;SDS011;15752;49.560;8.708;2023-01-26T09:23:45;7.30;;;5.27;;
28551;SDS011;15752;49.560;8.708;2023-01-26T09:26:14;7.57;;;5.80;;
28551;SDS011;15752;49.560;8.708;2023-01-26T09:28:44;6.80;;;4.73;;
28551;SDS011;15752;49.560;8.708;2023-01-26T09:31:16;7.63;;;5.23;;
28551;SDS011;15752;49.560;8.708;2023-01-26T09:33:46;8.07;;;5.23;;
28551;SDS011;15752;49.560;8.708;2023-01-26T09:36:15;6.60;;;4.97;;
28551;SDS011;15752;49.560;8.708;2023-01-26T09:38:44;7.70;;;5.43;;
28551;SDS011;15752;49.560;8.708;2023-01-26T09:41:17;6.50;;;5.17;;
28551;SDS011;15752;49.560;8.708;2023-01-26T09:44:03;8.27;;;5.90;;
28551;SDS011;15752;49.560;8.708;2023-01-26T09:46:39;11.40;;;6.07;;
28551;SDS011;15752;49.560;8.708;2023-01-26T09:49:22;7.63;;;5.47;;
28551;SDS011;15752;49.560;8.708;2023-01-26T09:51:58;8.83;;;6.17;;
28551;SDS011;15752;49.560;8.708;2023-01-26T09:54:34;9.97;;;6.03;;
28551;SDS011;15752;49.560;8.708;2023-01-26T09:57:09;7.20;;;6.03;;
28551;SDS011;15752;49.560;8.708;2023-01-26T09:59:43;8.47;;;6.70;;
28551;SDS011;15752;49.560;8.708;2023-01-26T10:02:19;8.87;;;6.90;;
28551;SDS011;15752;49.560;8.708;2023-01-26T10:05:00;8.30;;;6.33;;
28551;SDS011;15752;49.560;8.708;2023-01-26T10:07:35;9.03;;;6.90;;
28551;SDS011;15752;49.560;8.708;2023-01-26T10:10:03;8.97;;;6.43;;
28551;SDS011;15752;49.560;8.708;2023-01-26T10:12:33;8.40;;;6.47;;
28551;SDS011;15752;49.560;8.708;2023-01-26T10:15:05;8.83;;;6.93;;
28551;SDS011;15752;49.560;8.708;2023-01-26T10:17:45;9.00;;;6.67;;
28551;SDS011;15752;49.560;8.708;2023-01-26T10:20:18;7.80;;;6.20;;
28551;SDS011;15752;49.560;8.708;2023-01-26T10:22:56;7.90;;;5.40;;
28551;SDS011;15752;49.560;8.708;2023-01-26T10:25:29;10.27;;;7.07;;
28551;SDS011;15752;49.560;8.708;2023-01-26T10:28:04;10.07;;;6.77;;
28551;SDS011;15752;49.560;8.708;2023-01-26T10:30:42;10.43;;;8.10;;
28551;SDS011;15752;49.560;8.708;2023-01-26T10:33:13;6.77;;;5.30;;
28551;SDS011;15752;49.560;8.708;2023-01-26T10:35:45;9.13;;;6.63;;
28551;SDS011;15752;49.560;8.708;2023-01-26T10:41:21;7.17;;;5.10;;
28551;SDS011;15752;49.560;8.708;2023-01-26T10:43:54;15.47;;;8.23;;
28551;SDS011;15752;49.560;8.708;2023-01-26T10:46:28;11.83;;;7.27;;
28551;SDS011;15752;49.560;8.708;2023-01-26T10:49:02;8.57;;;5.67;;
28551;SDS011;15752;49.560;8.708;2023-01-26T10:51:43;13.40;;;6.40;;
28551;SDS011;15752;49.560;8.708;2023-01-26T10:54:20;10.17;;;6.63;;
28551;SDS011;15752;49.560;8.708;2023-01-26T10:56:51;35.80;;;19.10;;
28551;SDS011;15752;49.560;8.708;2023-01-26T10:59:27;25.23;;;13.83;;
28551;SDS011;15752;49.560;8.708;2023-01-26T11:02:01;14.47;;;9.23;;
28551;SDS011;15752;49.560;8.708;2023-01-26T11:07:45;12.53;;;8.03;;
28551;SDS011;15752;49.560;8.708;2023-01-26T11:10:20;18.47;;;9.93;;
28551;SDS011;15752;49.560;8.708;2023-01-26T11:13:05;15.57;;;9.17;;
28551;SDS011;15752;49.560;8.708;2023-01-26T11:15:38;13.83;;;8.97;;
28551;SDS011;15752;49.560;8.708;2023-01-26T11:18:12;16.50;;;9.70;;
28551;SDS011;15752;49.560;8.708;2023-01-26T11:20:50;10.83;;;7.77;;
28551;SDS011;15752;49.560;8.708;2023-01-26T11:23:31;11.00;;;7.80;;
28551;SDS011;15752;49.560;8.708;2023-01-26T11:26:20;9.93;;;6.90;;
28551;SDS011;15752;49.560;8.708;2023-01-26T11:29:16;8.07;;;6.80;;
28551;SDS011;15752;49.560;8.708;2023-01-26T11:32:09;8.43;;;6.87;;
28551;SDS011;15752;49.560;8.708;2023-01-26T11:34:47;9.13;;;7.00;;
28551;SDS011;15752;49.560;8.708;2023-01-26T11:37:37;8.33;;;5.97;;
28551;SDS011;15752;49.560;8.708;2023-01-26T11:46:00;11.60;;;8.27;;
28551;SDS011;15752;49.560;8.708;2023-01-26T11:48:43;12.30;;;8.60;;
28551;SDS011;15752;49.560;8.708;2023-01-26T11:51:25;10.03;;;8.00;;
28551;SDS011;15752;49.560;8.708;2023-01-26T11:54:18;11.30;;;7.97;;
28551;SDS011;15752;49.560;8.708;2023-01-26T11:57:03;12.03;;;8.30;;
28551;SDS011;15752;49.560;8.708;2023-01-26T11:59:40;11.50;;;8.00;;
28551;SDS011;15752;49.560;8.708;2023-01-26T12:02:20;12.17;;;7.53;;
28551;SDS011;15752;49.560;8.708;2023-01-26T12:04:56;12.90;;;8.93;;
28551;SDS011;15752;49.560;8.708;2023-01-26T12:07:31;10.47;;;8.10;;
28551;SDS011;15752;49.560;8.708;2023-01-26T12:10:17;11.43;;;8.70;;
28551;SDS011;15752;49.560;8.708;2023-01-26T12:12:52;13.37;;;8.20;;
28551;SDS011;15752;49.560;8.708;2023-01-26T12:15:28;10.87;;;7.67;;
28551;SDS011;15752;49.560;8.708;2023-01-26T12:18:03;14.00;;;10.33;;
28551;SDS011;15752;49.560;8.708;2023-01-26T12:20:41;11.63;;;9.10;;
28551;SDS011;15752;49.560;8.708;2023-01-26T12:23:15;12.40;;;9.27;;
28551;SDS011;15752;49.560;8.708;2023-01-26T12:26:06;12.90;;;8.97;;
28551;SDS011;15752;49.560;8.708;2023-01-26T12:28:41;13.50;;;9.57;;
28551;SDS011;15752;49.560;8.708;2023-01-26T12:31:15;13.27;;;9.17;;
28551;SDS011;15752;49.560;8.708;2023-01-26T12:33:50;11.40;;;9.03;;
28551;SDS011;15752;49.560;8.708;2023-01-26T12:36:24;11.87;;;8.60;;
28551;SDS011;15752;49.560;8.708;2023-01-26T12:39:09;12.40;;;8.37;;
28551;SDS011;15752;49.560;8.708;2023-01-26T12:41:43;13.70;;;8.00;;
28551;SDS011;15752;49.560;8.708;2023-01-26T12:44:39;10.10;;;7.57;;
28551;SDS011;15752;49.560;8.708;2023-01-26T12:47:13;11.43;;;7.87;;
28551;SDS011;15752;49.560;8.708;2023-01-26T12:49:50;11.67;;;8.53;;
28551;SDS011;15752;49.560;8.708;2023-01-26T12:52:26;11.87;;;8.03;;
28551;SDS011;15752;49.560;8.708;2023-01-26T12:55:02;10.63;;;7.50;;
28551;SDS011;15752;49.560;8.708;2023-01-26T12:57:41;10.10;;;7.70;;
28551;SDS011;15752;49.560;8.708;2023-01-26T13:00:18;12.77;;;8.80;;
28551;SDS011;15752;49.560;8.708;2023-01-26T13:02:51;10.40;;;8.53;;
28551;SDS011;15752;49.560;8.708;2023-01-26T13:05:25;10.70;;;7.93;;
28551;SDS011;15752;49.560;8.708;2023-01-26T13:07:56;9.30;;;7.57;;
28551;SDS011;15752;49.560;8.708;2023-01-26T13:10:29;8.13;;;6.70;;
28551;SDS011;15752;49.560;8.708;2023-01-26T13:13:26;6.90;;;5.90;;
28551;SDS011;15752;49.560;8.708;2023-01-26T13:19:00;6.60;;;5.83;;
28551;SDS011;15752;49.560;8.708;2023-01-26T13:21:40;6.93;;;5.97;;
28551;SDS011;15752;49.560;8.708;2023-01-26T13:27:27;8.60;;;6.33;;
28551;SDS011;15752;49.560;8.708;2023-01-26T13:29:59;6.60;;;5.37;;
28551;SDS011;15752;49.560;8.708;2023-01-26T13:35:43;5.97;;;5.33;;
28551;SDS011;15752;49.560;8.708;2023-01-26T13:38:17;7.63;;;5.60;;
28551;SDS011;15752;49.560;8.708;2023-01-26T13:40:54;7.07;;;5.33;;
28551;SDS011;15752;49.560;8.708;2023-01-26T13:43:30;6.53;;;5.10;;
28551;SDS011;15752;49.560;8.708;2023-01-26T13:46:09;7.87;;;5.90;;
28551;SDS011;15752;49.560;8.708;2023-01-26T13:48:43;7.50;;;5.30;;
28551;SDS011;15752;49.560;8.708;2023-01-26T13:51:17;7.73;;;5.57;;
28551;SDS011;15752;49.560;8.708;2023-01-26T13:53:52;7.37;;;5.50;;
28551;SDS011;15752;49.560;8.708;2023-01-26T13:56:28;6.77;;;5.43;;
28551;SDS011;15752;49.560;8.708;2023-01-26T13:59:07;6.63;;;5.00;;
28551;SDS011;15752;49.560;8.708;2023-01-26T14:01:41;7.23;;;5.53;;
28551;SDS011;15752;49.560;8.708;2023-01-26T14:04:12;5.93;;;4.90;;
28551;SDS011;15752;49.560;8.708;2023-01-26T14:06:48;7.30;;;6.20;;
28551;SDS011;15752;49.560;8.708;2023-01-26T14:09:23;7.00;;;5.80;;
28551;SDS011;15752;49.560;8.708;2023-01-26T14:11:55;11.17;;;9.97;;
28551;SDS011;15752;49.560;8.708;2023-01-26T14:14:28;8.40;;;6.10;;
28551;SDS011;15752;49.560;8.708;2023-01-26T14:16:59;8.13;;;6.13;;
28551;SDS011;15752;49.560;8.708;2023-01-26T14:19:38;9.03;;;6.43;;
28551;SDS011;15752;49.560;8.708;2023-01-26T14:22:11;7.47;;;5.93;;
28551;SDS011;15752;49.560;8.708;2023-01-26T14:24:40;6.77;;;5.27;;
28551;SDS011;15752;49.560;8.708;2023-01-26T14:27:19;5.23;;;4.13;;
28551;SDS011;15752;49.560;8.708;2023-01-26T14:29:58;5.70;;;4.43;;
28551;SDS011;15752;49.560;8.708;2023-01-26T14:32:27;6.70;;;5.77;;
28551;SDS011;15752;49.560;8.708;2023-01-26T14:34:58;7.27;;;6.03;;
28551;SDS011;15752;49.560;8.708;2023-01-26T14:37:29;7.10;;;5.50;;
28551;SDS011;15752;49.560;8.708;2023-01-26T14:42:53;6.70;;;5.00;;
28551;SDS011;15752;49.560;8.708;2023-01-26T14:45:25;6.47;;;5.20;;
28551;SDS011;15752;49.560;8.708;2023-01-26T14:47:57;6.97;;;5.47;;
28551;SDS011;15752;49.560;8.708;2023-01-26T14:50:30;6.83;;;5.43;;
28551;SDS011;15752;49.560;8.708;2023-01-26T14:52:59;6.23;;;5.27;;
28551;SDS011;15752;49.560;8.708;2023-01-26T14:55:30;6.47;;;5.30;;
28551;SDS011;15752;49.560;8.708;2023-01-26T14:58:02;7.17;;;5.93;;
28551;SDS011;15752;49.560;8.708;2023-01-26T15:00:45;8.10;;;6.00;;
28551;SDS011;15752;49.560;8.708;2023-01-26T15:03:19;7.80;;;5.77;;
28551;SDS011;15752;49.560;8.708;2023-01-26T15:06:15;13.13;;;8.03;;
28551;SDS011;15752;49.560;8.708;2023-01-26T15:08:53;9.03;;;6.93;;
28551;SDS011;15752;49.560;8.708;2023-01-26T15:11:36;10.40;;;7.40;;
28551;SDS011;15752;49.560;8.708;2023-01-26T15:14:29;10.47;;;7.20;;
28551;SDS011;15752;49.560;8.708;2023-01-26T15:17:05;9.30;;;6.70;;
28551;SDS011;15752;49.560;8.708;2023-01-26T15:19:38;9.33;;;6.23;;
28551;SDS011;15752;49.560;8.708;2023-01-26T15:22:16;7.30;;;5.70;;
28551;SDS011;15752;49.560;8.708;2023-01-26T15:24:58;7.93;;;5.90;;
28551;SDS011;15752;49.560;8.708;2023-01-26T15:27:32;8.10;;;6.07;;
28551;SDS011;15752;49.560;8.708;2023-01-26T15:30:02;7.50;;;5.50;;
28551;SDS011;15752;49.560;8.708;2023-01-26T15:32:38;7.00;;;5.77;;
28551;SDS011;15752;49.560;8.708;2023-01-26T15:35:16;7.93;;;6.77;;
28551;SDS011;15752;49.560;8.708;2023-01-26T15:37:48;7.63;;;5.60;;